Mount Hood Parkdale, OR (97041)

3:26 PM PDT on April 27, 2017 (GMT -0700)
Bosse Acres Ranch | | Change Station

Elev 1660 ft 45.51 °N, 121.57 °W | Updated 3 seconds ago

Overcast
Overcast
51.1 °F
Feels Like 51.1 °F
N
2.2
Wind Variable Wind from WNW

Today
High -- | Low -- °F
--% Chance of Precip.
Yesterday
High -- | Low -- °F
Precip. -- in
Pressure 30.04 in
Visibility 10.0 miles
Clouds Scattered Clouds 4900 ft
Dew Point 40 °F
Humidity 66%
Rainfall 0.15 in
Snow Depth Not available.
6:00 AM 8:08 PM
Waxing Crescent, 3% visible
METAR KDLS 272153Z AUTO 28018G24KT 10SM SCT049 15/03 A3003 RMK AO2 PK WND 27031/2112 SLP171 T01500033
Pressure 30.04 in
Visibility 10.0 miles
Clouds Scattered Clouds 4900 ft
Dew Point 40 °F
Humidity 66%
Rainfall 0.15 in
Snow Depth Not available.
6:00 AM 8:08 PM
Waxing Crescent, 3% visible
METAR KDLS 272153Z AUTO 28018G24KT 10SM SCT049 15/03 A3003 RMK AO2 PK WND 27031/2112 SLP171 T01500033

Get Severe Weather Alerts

Thanks for signing up!

Be on the lookout for a verification email in your inbox.

You'll start receiving the daily forecast at 8 AM.

×

10-Day Weather Forecast

Almanac

Astronomy

Apr. 27, 2017 Rise Set
Actual Time
Civil Twilight
Nautical Twilight
Astronomical Twilight
Moon
Length of Visible Light
Length of Day
Tomorrow will be .
, % of the Moon is Illuminated

Today's Extremes

State Highs State Lows

Community

WunderPhotos

WunderBlog® & News

Nearby

Air Quality

  Air Quality AQ Index Pollutant
Not available.

Snow Depth

Station Depth Elevation

Earthquake Activity

City Distance Mag. Time & Date
Minimum magnitude displayed is 2.5.

Coastal Water Temperatures

Place Temperature

Stations

Nearby Weather Stations

Station Location Temp. Windchill Dew Point Humidity Wind Precip. Elev Updated Type
                   

Watches & Warnings

There are currently no watches in effect.